createdAt,value
2023-11-14T00:01:25.538Z,12.90
2023-11-14T00:03:52.445Z,12.80
2023-11-14T00:06:19.193Z,12.89
2023-11-14T00:08:46.608Z,12.71
2023-11-14T00:11:13.339Z,12.81
2023-11-14T00:13:40.184Z,12.85
2023-11-14T00:16:07.623Z,12.77
2023-11-14T00:18:34.538Z,12.84
2023-11-14T00:21:01.283Z,12.84
2023-11-14T00:23:28.031Z,12.85
2023-11-14T00:25:54.794Z,12.87
2023-11-14T00:28:21.550Z,12.77
2023-11-14T00:30:48.405Z,12.77
2023-11-14T00:33:15.218Z,12.76
2023-11-14T00:35:44.313Z,12.68
2023-11-14T00:38:11.203Z,12.56
2023-11-14T00:40:40.253Z,12.76
2023-11-14T00:43:06.979Z,12.55
2023-11-14T00:45:33.626Z,12.71
2023-11-14T00:48:01.193Z,12.73
2023-11-14T00:50:28.096Z,12.57
2023-11-14T00:52:55.035Z,12.61
2023-11-14T00:55:21.713Z,12.57
2023-11-14T00:57:48.306Z,12.73
2023-11-14T01:00:16.006Z,12.61
2023-11-14T01:02:42.860Z,12.59
2023-11-14T01:05:09.747Z,12.65
2023-11-14T01:07:36.914Z,12.59
2023-11-14T01:10:05.060Z,12.58
2023-11-14T01:12:33.591Z,12.63
2023-11-14T01:15:01.186Z,12.47
2023-11-14T01:17:28.560Z,12.51
2023-11-14T01:19:55.361Z,12.59
2023-11-14T01:22:22.092Z,12.63
2023-11-14T01:24:48.847Z,12.63
2023-11-14T01:27:16.954Z,12.63
2023-11-14T01:29:47.681Z,12.58
2023-11-14T01:32:14.437Z,12.50
2023-11-14T01:34:42.134Z,12.48
2023-11-14T01:37:10.294Z,12.34
2023-11-14T01:39:37.152Z,12.34
2023-11-14T01:42:03.996Z,12.29
2023-11-14T01:44:31.356Z,12.15
2023-11-14T01:46:58.542Z,12.19
2023-11-14T01:49:25.430Z,12.23
2023-11-14T01:51:52.084Z,12.15
2023-11-14T01:54:18.985Z,12.06
2023-11-14T01:56:46.088Z,12.14
2023-11-14T01:59:12.886Z,12.07
2023-11-14T02:01:39.772Z,11.97
2023-11-14T02:04:11.506Z,12.06
2023-11-14T02:06:38.518Z,12.17
2023-11-14T02:09:08.788Z,12.13
2023-11-14T02:11:36.283Z,11.93
2023-11-14T02:14:03.115Z,12.12
2023-11-14T02:16:49.573Z,11.99
2023-11-14T02:19:16.925Z,12.09
2023-11-14T02:21:44.200Z,12.09
2023-11-14T02:24:22.200Z,12.25
2023-11-14T02:26:50.277Z,12.18
2023-11-14T02:29:19.746Z,12.25
2023-11-14T02:31:49.187Z,12.21
2023-11-14T02:34:16.411Z,12.26
2023-11-14T02:36:43.398Z,12.28
2023-11-14T02:39:10.066Z,12.26
2023-11-14T02:41:36.955Z,12.29
2023-11-14T02:44:04.367Z,12.11
2023-11-14T02:46:31.672Z,12.25
2023-11-14T02:49:11.384Z,12.26
2023-11-14T02:51:38.675Z,12.43
2023-11-14T02:54:05.711Z,12.44
2023-11-14T02:56:32.262Z,12.39
2023-11-14T02:59:01.610Z,12.45
2023-11-14T03:01:28.423Z,12.44
2023-11-14T03:03:55.067Z,12.46
2023-11-14T03:06:22.747Z,12.39
2023-11-14T03:08:49.349Z,12.42
2023-11-14T03:11:16.015Z,12.15
2023-11-14T03:13:43.004Z,12.32
2023-11-14T03:16:15.116Z,12.23
2023-11-14T03:18:42.031Z,12.22
2023-11-14T03:21:08.819Z,12.20
2023-11-14T03:23:35.379Z,12.27
2023-11-14T03:26:02.118Z,12.26
2023-11-14T03:28:28.747Z,12.06
2023-11-14T03:30:55.400Z,12.10
2023-11-14T03:33:22.058Z,12.06
2023-11-14T03:35:48.760Z,12.01
2023-11-14T03:38:15.769Z,11.85
2023-11-14T03:40:42.461Z,11.64
2023-11-14T03:43:09.689Z,11.70
2023-11-14T03:45:36.800Z,11.81
2023-11-14T03:48:03.570Z,11.76
2023-11-14T03:50:30.235Z,11.76
2023-11-14T03:52:56.923Z,11.60
2023-11-14T03:55:25.027Z,11.74
2023-11-14T03:57:51.669Z,11.70
2023-11-14T04:00:18.448Z,11.72
2023-11-14T04:02:45.248Z,11.82
2023-11-14T04:05:12.021Z,11.85
2023-11-14T04:07:39.994Z,11.82
2023-11-14T04:10:08.390Z,11.84
2023-11-14T04:12:35.250Z,11.86
2023-11-14T04:15:01.972Z,11.77
2023-11-14T04:17:28.787Z,11.90
2023-11-14T04:19:55.605Z,11.92
2023-11-14T04:22:22.469Z,11.87
2023-11-14T04:24:50.201Z,11.92
2023-11-14T04:27:17.728Z,11.92
2023-11-14T04:29:44.693Z,11.93
2023-11-14T04:32:11.538Z,11.95
2023-11-14T04:34:38.719Z,11.97
2023-11-14T04:37:06.098Z,12.00
2023-11-14T04:39:32.992Z,12.03
2023-11-14T04:41:59.924Z,12.00
2023-11-14T04:44:26.719Z,11.98
2023-11-14T04:46:53.526Z,12.01
2023-11-14T04:49:21.152Z,12.10
2023-11-14T04:51:47.772Z,12.01
2023-11-14T04:54:14.470Z,12.09
2023-11-14T04:56:41.155Z,12.08
2023-11-14T04:59:07.784Z,12.05
2023-11-14T05:01:34.621Z,11.98
2023-11-14T05:04:01.301Z,11.94
2023-11-14T05:06:29.072Z,12.03
2023-11-14T05:08:55.693Z,12.04
2023-11-14T05:11:22.338Z,12.02
2023-11-14T05:13:49.044Z,12.02
2023-11-14T05:16:22.504Z,12.05
2023-11-14T05:18:51.230Z,12.00
2023-11-14T05:21:18.283Z,12.04
2023-11-14T05:23:44.964Z,12.02
2023-11-14T05:26:11.573Z,12.00
2023-11-14T05:28:39.369Z,12.08
2023-11-14T05:31:06.432Z,12.08
2023-11-14T05:33:33.209Z,12.01
2023-11-14T05:35:59.873Z,11.98
2023-11-14T05:38:28.528Z,12.06
2023-11-14T05:40:57.746Z,12.11
2023-11-14T05:43:25.669Z,12.13
2023-11-14T05:45:52.493Z,12.09
2023-11-14T05:48:20.871Z,11.98
2023-11-14T05:50:48.768Z,12.18
2023-11-14T05:53:17.079Z,12.19
2023-11-14T05:55:43.932Z,12.22
2023-11-14T05:58:11.699Z,12.17
2023-11-14T06:00:38.402Z,12.19
2023-11-14T06:03:05.206Z,12.19
2023-11-14T06:05:31.992Z,12.15
2023-11-14T06:07:58.742Z,12.06
2023-11-14T06:10:25.462Z,12.09
2023-11-14T06:12:52.890Z,12.00
2023-11-14T06:15:19.745Z,11.98
2023-11-14T06:17:46.480Z,11.97
2023-11-14T06:20:15.745Z,12.05
2023-11-14T06:22:42.669Z,11.99
2023-11-14T06:25:09.478Z,11.92
2023-11-14T06:27:36.256Z,11.94
2023-11-14T06:30:03.126Z,11.91
2023-11-14T06:32:30.229Z,11.86
2023-11-14T06:34:57.548Z,11.92
2023-11-14T06:37:24.274Z,11.99
2023-11-14T06:39:50.999Z,11.96
2023-11-14T06:42:17.633Z,12.00
2023-11-14T06:44:44.882Z,11.84
2023-11-14T06:47:11.850Z,11.92
2023-11-14T06:49:38.829Z,11.92
2023-11-14T06:52:05.520Z,11.83
2023-11-14T06:54:32.134Z,11.91
2023-11-14T06:57:00.557Z,11.85
2023-11-14T06:59:27.314Z,11.79
2023-11-14T07:01:54.121Z,11.71
2023-11-14T07:04:21.313Z,11.72
2023-11-14T07:06:48.114Z,11.68
2023-11-14T07:09:16.874Z,11.68
2023-11-14T07:11:45.822Z,11.64
2023-11-14T07:14:13.866Z,11.36
2023-11-14T07:16:40.690Z,11.57
2023-11-14T07:19:07.821Z,11.53
2023-11-14T07:21:34.675Z,11.58
2023-11-14T07:24:01.318Z,11.56
2023-11-14T07:26:29.067Z,11.64
2023-11-14T07:28:55.815Z,11.58
2023-11-14T07:31:22.567Z,11.74
2023-11-14T07:33:49.201Z,11.67
2023-11-14T07:36:15.886Z,11.84
2023-11-14T07:38:44.270Z,11.78
2023-11-14T07:41:11.879Z,11.80
2023-11-14T07:43:38.929Z,11.91
2023-11-14T07:46:07.163Z,11.89
2023-11-14T07:48:35.089Z,11.84
2023-11-14T07:51:02.153Z,11.91
2023-11-14T07:53:28.716Z,11.78
2023-11-14T07:55:55.643Z,11.86
2023-11-14T07:58:26.228Z,11.87
2023-11-14T08:00:53.658Z,11.72
2023-11-14T08:03:20.489Z,11.89
2023-11-14T08:05:48.788Z,11.86
2023-11-14T08:08:16.809Z,11.79
2023-11-14T08:10:43.471Z,11.89
2023-11-14T08:13:10.091Z,11.84
2023-11-14T08:15:36.758Z,11.87
2023-11-14T08:18:03.540Z,11.90
2023-11-14T08:20:30.155Z,11.99
2023-11-14T08:22:56.948Z,12.06
2023-11-14T08:25:23.793Z,12.13
2023-11-14T08:27:50.876Z,12.15
2023-11-14T08:30:17.999Z,12.15
2023-11-14T08:32:46.318Z,12.22
2023-11-14T08:35:13.113Z,12.21
2023-11-14T08:37:39.749Z,12.32
2023-11-14T08:40:10.986Z,12.34
2023-11-14T08:42:37.900Z,12.48
2023-11-14T08:45:05.046Z,12.51
2023-11-14T08:47:31.651Z,12.48
2023-11-14T08:49:58.364Z,12.64
2023-11-14T08:52:25.092Z,12.56
2023-11-14T08:54:51.815Z,12.69
2023-11-14T08:57:18.497Z,12.80
2023-11-14T08:59:45.101Z,12.91
2023-11-14T09:02:11.812Z,13.02
2023-11-14T09:04:38.519Z,12.97
2023-11-14T09:07:05.383Z,13.03
2023-11-14T09:09:32.005Z,13.34
2023-11-14T09:11:59.313Z,13.87
2023-11-14T09:14:27.006Z,13.83
2023-11-14T09:16:54.876Z,13.96
2023-11-14T09:19:23.765Z,13.90
2023-11-14T09:21:50.640Z,13.89
2023-11-14T09:24:17.444Z,14.08
2023-11-14T09:26:44.285Z,13.85
2023-11-14T09:29:11.011Z,13.99
2023-11-14T09:31:37.823Z,14.15
2023-11-14T09:34:05.692Z,14.01
2023-11-14T09:36:32.327Z,14.78
2023-11-14T09:38:58.966Z,15.42
2023-11-14T09:41:28.665Z,15.97
2023-11-14T09:43:56.054Z,16.52
2023-11-14T09:46:22.767Z,16.65
2023-11-14T09:48:50.960Z,16.16
2023-11-14T09:51:19.345Z,15.80
2023-11-14T09:53:48.362Z,15.73
2023-11-14T09:56:16.722Z,16.31
2023-11-14T09:58:43.631Z,17.26
2023-11-14T10:01:11.670Z,16.75
2023-11-14T10:03:38.865Z,16.93
2023-11-14T10:06:05.813Z,17.27
2023-11-14T10:08:45.343Z,17.61
2023-11-14T10:11:15.677Z,17.22
2023-11-14T10:13:42.372Z,16.97
2023-11-14T10:16:22.520Z,16.37
2023-11-14T10:18:51.163Z,16.11
2023-11-14T10:21:22.574Z,16.19
2023-11-14T10:23:49.442Z,16.10
2023-11-14T10:26:16.406Z,15.68
2023-11-14T10:29:01.259Z,15.10
2023-11-14T10:31:39.102Z,15.30
2023-11-14T10:34:10.948Z,15.45
2023-11-14T10:36:49.935Z,15.18
2023-11-14T10:39:16.647Z,15.11
2023-11-14T10:41:43.728Z,14.82
2023-11-14T10:44:13.239Z,14.93
2023-11-14T10:46:59.847Z,14.72
2023-11-14T10:49:27.548Z,14.62
2023-11-14T10:51:55.806Z,14.45
2023-11-14T10:54:23.361Z,14.50
2023-11-14T10:56:56.000Z,14.46
2023-11-14T10:59:26.531Z,14.67
2023-11-14T11:01:53.624Z,14.74
2023-11-14T11:04:20.975Z,14.83
2023-11-14T11:06:50.643Z,14.81
2023-11-14T11:09:19.910Z,15.16
2023-11-14T11:11:50.621Z,15.29
2023-11-14T11:14:19.494Z,15.40
2023-11-14T11:16:49.170Z,15.33
2023-11-14T11:19:27.281Z,15.33
2023-11-14T11:22:08.498Z,15.32
2023-11-14T11:24:41.345Z,15.52
2023-11-14T11:27:23.962Z,15.62
2023-11-14T11:29:59.813Z,15.52
2023-11-14T11:32:31.733Z,15.39
2023-11-14T11:35:24.984Z,15.38
2023-11-14T11:37:57.971Z,15.33
2023-11-14T11:40:26.861Z,15.29
2023-11-14T11:43:10.204Z,15.08
2023-11-14T11:45:38.066Z,15.39
2023-11-14T11:48:05.080Z,15.38
2023-11-14T11:50:34.143Z,15.50
2023-11-14T11:53:06.200Z,15.47
2023-11-14T11:55:37.026Z,15.50
2023-11-14T11:58:06.906Z,15.14
2023-11-14T12:00:33.921Z,15.42
2023-11-14T12:03:02.289Z,15.22
2023-11-14T12:05:30.617Z,15.18
2023-11-14T12:07:59.389Z,15.26
2023-11-14T12:10:26.894Z,15.12
2023-11-14T12:12:56.785Z,15.08
2023-11-14T12:15:29.531Z,15.02
2023-11-14T12:18:00.074Z,14.89
2023-11-14T12:20:27.342Z,14.89
2023-11-14T12:22:54.441Z,14.89
2023-11-14T12:25:22.402Z,14.84
2023-11-14T12:28:02.645Z,14.81
2023-11-14T12:30:30.113Z,14.74
2023-11-14T12:33:22.989Z,14.63
2023-11-14T12:35:59.495Z,14.62
2023-11-14T12:38:30.496Z,14.57
2023-11-14T12:41:29.769Z,14.55
2023-11-14T12:44:08.031Z,14.50
2023-11-14T12:46:37.991Z,14.29
2023-11-14T12:49:17.854Z,14.34
2023-11-14T12:51:45.969Z,14.21
2023-11-14T12:54:14.276Z,14.17
2023-11-14T12:56:41.681Z,14.05
2023-11-14T12:59:11.691Z,14.03
2023-11-14T13:01:43.116Z,14.00
2023-11-14T13:04:13.271Z,14.05
2023-11-14T13:06:43.279Z,13.95
2023-11-14T13:09:10.269Z,13.94
2023-11-14T13:11:37.085Z,13.99
2023-11-14T13:14:04.433Z,13.94
2023-11-14T13:16:31.658Z,13.94
2023-11-14T13:18:58.407Z,13.87
2023-11-14T13:21:25.823Z,13.95
2023-11-14T13:23:53.080Z,13.86
2023-11-14T13:26:23.918Z,13.90
2023-11-14T13:28:51.902Z,13.75
2023-11-14T13:31:20.067Z,13.78
2023-11-14T13:33:47.606Z,13.61
2023-11-14T13:36:17.623Z,13.60
2023-11-14T13:38:45.741Z,13.70
2023-11-14T13:43:42.919Z,13.59
2023-11-14T13:46:20.238Z,13.48
2023-11-14T13:48:51.591Z,13.51
2023-11-14T13:51:19.505Z,13.52
2023-11-14T13:53:47.359Z,13.48
2023-11-14T13:56:14.157Z,13.46
2023-11-14T13:58:41.526Z,13.55
2023-11-14T14:01:10.441Z,13.48
2023-11-14T14:03:38.597Z,13.28
2023-11-14T14:06:08.555Z,13.27
2023-11-14T14:08:38.724Z,13.22
2023-11-14T14:11:08.906Z,13.21
2023-11-14T14:13:36.311Z,13.18
2023-11-14T14:16:08.868Z,13.12
2023-11-14T14:18:36.371Z,13.09
2023-11-14T14:21:04.225Z,13.08
2023-11-14T14:23:31.482Z,12.95
2023-11-14T14:25:58.902Z,12.99
2023-11-14T14:28:36.004Z,12.94
2023-11-14T14:31:07.685Z,12.95
2023-11-14T14:33:34.460Z,12.95
2023-11-14T14:36:01.080Z,12.86
2023-11-14T14:38:27.774Z,12.77
2023-11-14T14:40:54.429Z,12.73
2023-11-14T14:43:21.103Z,12.74
2023-11-14T14:45:48.237Z,12.72
2023-11-14T14:48:15.283Z,12.72
2023-11-14T14:50:42.106Z,12.70
2023-11-14T14:53:13.077Z,12.59
2023-11-14T14:55:39.690Z,12.56
2023-11-14T14:58:08.327Z,12.39
2023-11-14T15:00:35.152Z,12.46
2023-11-14T15:03:02.937Z,12.36
2023-11-14T15:05:36.489Z,12.16
2023-11-14T15:08:04.434Z,12.21
2023-11-14T15:10:31.775Z,12.14
2023-11-14T15:13:00.242Z,12.10
2023-11-14T15:15:27.915Z,12.00
2023-11-14T15:17:58.445Z,11.94
2023-11-14T15:20:26.040Z,11.85
2023-11-14T15:22:53.396Z,11.70
2023-11-14T15:25:20.346Z,11.74
2023-11-14T15:27:47.134Z,11.70
2023-11-14T15:30:14.771Z,11.60
2023-11-14T15:32:42.791Z,11.64
2023-11-14T15:35:09.599Z,11.61
2023-11-14T15:37:36.407Z,11.58
2023-11-14T15:40:09.612Z,11.51
2023-11-14T15:42:42.739Z,11.38
2023-11-14T15:45:09.726Z,11.44
2023-11-14T15:47:36.458Z,11.44
2023-11-14T15:50:05.534Z,11.32
2023-11-14T15:52:32.973Z,11.19
2023-11-14T15:54:59.744Z,11.14
2023-11-14T15:57:27.785Z,11.29
2023-11-14T15:59:55.180Z,11.27
2023-11-14T16:02:22.136Z,11.24
2023-11-14T16:04:49.654Z,11.23
2023-11-14T16:07:16.658Z,11.02
2023-11-14T16:09:43.363Z,11.12
2023-11-14T16:12:10.295Z,11.12
2023-11-14T16:14:37.209Z,11.10
2023-11-14T16:17:05.028Z,11.04
2023-11-14T16:19:37.585Z,11.02
2023-11-14T16:22:05.411Z,10.95
2023-11-14T16:24:32.399Z,11.00
2023-11-14T16:26:59.937Z,11.00
2023-11-14T16:29:26.730Z,10.96
2023-11-14T16:31:53.629Z,10.92
2023-11-14T16:34:20.280Z,11.00
2023-11-14T16:36:46.946Z,10.93
2023-11-14T16:39:13.604Z,10.84
2023-11-14T16:41:41.452Z,10.92
2023-11-14T16:44:08.267Z,10.93
2023-11-14T16:46:35.662Z,10.87
2023-11-14T16:49:02.392Z,10.91
2023-11-14T16:51:32.472Z,10.90
2023-11-14T16:54:03.080Z,10.93
2023-11-14T16:56:30.121Z,10.90
2023-11-14T16:58:59.251Z,10.91
2023-11-14T17:01:28.053Z,10.90
2023-11-14T17:03:58.939Z,10.91
2023-11-14T17:06:25.914Z,10.86
2023-11-14T17:08:52.561Z,10.79
2023-11-14T17:11:19.341Z,10.83
2023-11-14T17:13:45.968Z,10.96
2023-11-14T17:16:13.827Z,10.74
2023-11-14T17:18:40.684Z,10.99
2023-11-14T17:21:07.472Z,11.01
2023-11-14T17:23:36.642Z,10.72
2023-11-14T17:26:03.448Z,10.91
2023-11-14T17:28:30.149Z,10.89
2023-11-14T17:30:56.750Z,10.91
2023-11-14T17:33:23.445Z,10.97
2023-11-14T17:35:51.292Z,10.99
2023-11-14T17:38:17.903Z,10.89
2023-11-14T17:40:44.693Z,10.96
2023-11-14T17:43:11.400Z,10.97
2023-11-14T17:45:39.502Z,10.97
2023-11-14T17:48:08.971Z,10.91
2023-11-14T17:50:37.203Z,10.96
2023-11-14T17:53:05.001Z,10.97
2023-11-14T17:55:32.136Z,10.98
2023-11-14T17:57:58.773Z,10.95
2023-11-14T18:00:27.407Z,10.89
2023-11-14T18:02:57.059Z,10.88
2023-11-14T18:05:25.592Z,10.92
2023-11-14T18:07:53.140Z,10.94
2023-11-14T18:10:20.406Z,10.89
2023-11-14T18:12:50.498Z,10.87
2023-11-14T18:15:19.081Z,10.83
2023-11-14T18:17:46.487Z,10.87
2023-11-14T18:20:14.138Z,10.84
2023-11-14T18:22:41.840Z,10.81
2023-11-14T18:25:09.480Z,10.69
2023-11-14T18:27:36.345Z,10.80
2023-11-14T18:30:05.206Z,10.76
2023-11-14T18:32:33.750Z,10.67
2023-11-14T18:35:02.528Z,10.55
2023-11-14T18:37:29.207Z,10.62
2023-11-14T18:39:55.801Z,10.59
2023-11-14T18:42:22.368Z,10.60
2023-11-14T18:45:01.422Z,10.56
2023-11-14T18:47:34.105Z,10.52
2023-11-14T18:50:01.130Z,10.54
2023-11-14T18:52:27.924Z,10.52
2023-11-14T18:54:55.968Z,10.53
2023-11-14T18:57:22.586Z,10.52
2023-11-14T18:59:49.295Z,10.51
2023-11-14T19:02:16.010Z,10.50
2023-11-14T19:04:42.840Z,10.48
2023-11-14T19:07:09.564Z,10.51
2023-11-14T19:09:36.213Z,10.49
2023-11-14T19:12:04.376Z,10.50
2023-11-14T19:14:32.010Z,10.49
2023-11-14T19:16:59.782Z,10.55
2023-11-14T19:19:26.918Z,10.55
2023-11-14T19:21:54.001Z,10.54
2023-11-14T19:24:21.018Z,10.47
2023-11-14T19:26:47.824Z,10.47
2023-11-14T19:29:14.724Z,10.36
2023-11-14T19:31:43.370Z,10.48
2023-11-14T19:34:11.288Z,10.49
2023-11-14T19:36:38.552Z,10.47
2023-11-14T19:39:09.306Z,10.44
2023-11-14T19:41:36.119Z,10.45
2023-11-14T19:44:02.778Z,10.46
2023-11-14T19:46:29.446Z,10.43
2023-11-14T19:48:56.130Z,10.52
2023-11-14T19:51:23.900Z,10.51
2023-11-14T19:53:50.780Z,10.52
2023-11-14T19:56:18.247Z,10.55
2023-11-14T19:58:45.678Z,10.55
2023-11-14T20:01:12.803Z,10.53
2023-11-14T20:03:39.690Z,10.55
2023-11-14T20:06:06.950Z,10.49
2023-11-14T20:08:33.814Z,10.50
2023-11-14T20:11:00.857Z,10.54
2023-11-14T20:13:27.743Z,10.40
2023-11-14T20:15:54.406Z,10.52
2023-11-14T20:18:21.171Z,10.55
2023-11-14T20:20:48.051Z,10.59
2023-11-14T20:23:14.717Z,10.57
2023-11-14T20:25:41.417Z,10.61
2023-11-14T20:28:08.486Z,10.63
2023-11-14T20:30:35.095Z,10.68
2023-11-14T20:33:02.057Z,10.68
2023-11-14T20:35:28.917Z,10.69
2023-11-14T20:37:58.820Z,10.63
2023-11-14T20:40:29.745Z,10.63
2023-11-14T20:42:56.422Z,10.56
2023-11-14T20:45:23.155Z,10.58
2023-11-14T20:47:49.916Z,10.52
2023-11-14T20:50:16.931Z,10.60
2023-11-14T20:52:43.823Z,10.63
2023-11-14T20:55:10.491Z,10.59
2023-11-14T20:57:37.288Z,10.60
2023-11-14T21:00:08.707Z,10.53
2023-11-14T21:02:35.460Z,10.52
2023-11-14T21:05:02.072Z,10.61
2023-11-14T21:07:28.630Z,10.52
2023-11-14T21:09:55.215Z,10.70
2023-11-14T21:12:21.821Z,10.74
2023-11-14T21:14:48.478Z,10.77
2023-11-14T21:17:17.564Z,10.64
2023-11-14T21:19:45.748Z,10.86
2023-11-14T21:22:12.443Z,10.86
2023-11-14T21:24:39.916Z,10.90
2023-11-14T21:27:06.812Z,10.94
2023-11-14T21:29:33.529Z,10.98
2023-11-14T21:32:01.788Z,11.00
2023-11-14T21:34:28.387Z,11.02
2023-11-14T21:36:55.075Z,10.93
2023-11-14T21:39:21.730Z,10.94
2023-11-14T21:41:48.348Z,10.95
2023-11-14T21:44:15.057Z,10.96
2023-11-14T21:46:42.701Z,10.96
2023-11-14T21:49:11.266Z,10.98
2023-11-14T21:51:38.516Z,10.87
2023-11-14T21:54:06.172Z,10.98
2023-11-14T21:56:33.742Z,10.96
2023-11-14T21:59:00.448Z,10.96
2023-11-14T22:01:28.561Z,10.87
2023-11-14T22:03:55.221Z,10.90
2023-11-14T22:06:22.102Z,10.79
2023-11-14T22:08:48.818Z,10.84
2023-11-14T22:11:15.620Z,10.82
2023-11-14T22:13:42.277Z,10.58
2023-11-14T22:16:09.086Z,10.78
2023-11-14T22:18:35.707Z,10.79
2023-11-14T22:21:02.396Z,10.75
2023-11-14T22:23:31.233Z,10.76
2023-11-14T22:25:57.799Z,10.68
2023-11-14T22:28:24.844Z,10.74
2023-11-14T22:30:52.240Z,10.77
2023-11-14T22:33:19.469Z,10.78
2023-11-14T22:35:46.222Z,10.78
2023-11-14T22:38:12.914Z,10.80
2023-11-14T22:40:39.957Z,10.82
2023-11-14T22:43:07.116Z,10.82
2023-11-14T22:45:33.819Z,10.81
2023-11-14T22:48:00.595Z,10.82
2023-11-14T22:50:27.361Z,10.72
2023-11-14T22:52:53.931Z,10.77
2023-11-14T22:55:20.537Z,10.75
2023-11-14T22:57:47.133Z,10.74
2023-11-14T23:00:34.101Z,10.76
2023-11-14T23:03:02.008Z,10.79
2023-11-14T23:05:28.744Z,10.81
2023-11-14T23:07:55.368Z,10.77
2023-11-14T23:10:22.513Z,10.77
2023-11-14T23:12:49.952Z,10.78
2023-11-14T23:15:17.903Z,10.80
2023-11-14T23:17:47.684Z,10.73
2023-11-14T23:20:14.456Z,10.81
2023-11-14T23:22:41.036Z,10.74
2023-11-14T23:25:08.123Z,10.74
2023-11-14T23:27:34.968Z,10.68
2023-11-14T23:30:04.878Z,10.65
2023-11-14T23:32:31.575Z,10.44
2023-11-14T23:34:58.261Z,10.61
2023-11-14T23:37:24.938Z,10.65
2023-11-14T23:39:52.297Z,10.52
2023-11-14T23:42:19.135Z,10.62
2023-11-14T23:44:45.836Z,10.65
2023-11-14T23:47:13.130Z,10.60
2023-11-14T23:49:39.924Z,10.60
2023-11-14T23:52:07.134Z,10.75
2023-11-14T23:54:34.092Z,10.76
2023-11-14T23:57:00.829Z,10.81
2023-11-14T23:59:27.582Z,10.84
